Time;durP1;ratioP1;P1;durP2;ratioP2;P2;SDS_P1;SDS_P2;PMS_P1;PMS_P2;Temp;Humidity;BMP_temperature;BMP_pressure;BME280_temperature;BME280_humidity;BME280_pressure;Samples;Min_cycle;Max_cycle;Signal;HPM_P1;HPM_P2
2023/07/03 00:02:11;;;;;;;14.13;4.55;;;18.70;91.20;;;;;;4983699;28;20500;-93
2023/07/03 00:04:37;;;;;;;14.70;4.07;;;18.70;91.30;;;;;;4984047;28;20475;-92
2023/07/03 00:07:07;;;;;;;17.67;4.28;;;18.70;91.20;;;;;;5000565;28;20025;-92
2023/07/03 00:09:32;;;;;;;17.15;4.97;;;18.70;91.10;;;;;;5000008;28;20022;-92
2023/07/03 00:11:58;;;;;;;17.20;5.40;;;18.60;91.00;;;;;;5000172;28;20362;-94
2023/07/03 00:14:24;;;;;;;19.40;4.78;;;18.60;91.10;;;;;;4967757;28;20030;-93
2023/07/03 00:16:50;;;;;;;16.70;4.80;;;18.50;91.10;;;;;;4968010;28;20033;-93
2023/07/03 00:19:15;;;;;;;15.30;4.55;;;18.50;91.10;;;;;;4967839;28;20058;-94
2023/07/03 00:21:44;;;;;;;14.95;4.43;;;18.50;91.10;;;;;;4983804;28;20037;-93
2023/07/03 00:24:11;;;;;;;20.75;4.80;;;18.40;91.10;;;;;;4984327;28;20487;-93
2023/07/03 00:26:40;;;;;;;20.52;5.50;;;18.50;91.30;;;;;;4999753;28;20022;-91
2023/07/03 00:29:06;;;;;;;20.88;5.00;;;18.40;91.00;;;;;;4983295;28;20033;-90
2023/07/03 00:31:32;;;;;;;14.90;4.88;;;18.40;91.20;;;;;;4983255;28;20025;-91
2023/07/03 00:33:58;;;;;;;19.65;4.30;;;18.40;91.10;;;;;;4967252;28;20488;-93
2023/07/03 00:36:24;;;;;;;20.10;5.13;;;18.40;91.20;;;;;;4967934;28;20038;-93
2023/07/03 00:38:51;;;;;;;13.95;4.05;;;18.30;91.00;;;;;;4999866;28;20088;-93
2023/07/03 00:41:17;;;;;;;19.08;4.50;;;18.30;91.10;;;;;;4999822;28;20037;-93
2023/07/03 00:43:43;;;;;;;23.73;4.75;;;18.30;91.10;;;;;;4999839;28;20018;-93
2023/07/03 00:46:10;;;;;;;15.75;3.63;;;18.30;91.30;;;;;;4983293;28;20077;-93
2023/07/03 00:48:40;;;;;;;16.02;4.22;;;18.20;91.10;;;;;;4999507;28;20018;-93
2023/07/03 00:51:08;;;;;;;15.67;4.30;;;18.20;91.20;;;;;;4983546;28;20038;-93
2023/07/03 00:53:34;;;;;;;15.82;4.10;;;18.20;91.10;;;;;;4999011;28;20810;-92
2023/07/03 00:55:59;;;;;;;17.75;4.60;;;18.20;91.20;;;;;;4966823;28;20030;-92
2023/07/03 00:58:26;;;;;;;18.20;5.15;;;18.20;91.30;;;;;;4967022;28;20034;-91
2023/07/03 01:01:15;;;;;;;19.55;4.28;;;18.20;91.20;;;;;;4967277;28;20508;-91
2023/07/03 01:03:58;;;;;;;18.90;4.82;;;18.20;91.20;;;;;;4999224;28;20092;-92
2023/07/03 01:06:28;;;;;;;14.63;4.03;;;18.20;91.20;;;;;;5000378;28;20083;-91
2023/07/03 01:08:58;;;;;;;20.88;4.40;;;18.10;91.20;;;;;;5003895;28;20105;-89
2023/07/03 01:11:24;;;;;;;22.08;4.68;;;18.10;91.10;;;;;;4999440;28;20548;-90
2023/07/03 01:13:53;;;;;;;21.92;5.35;;;18.10;91.10;;;;;;4982469;28;20392;-90
2023/07/03 01:16:20;;;;;;;18.85;5.35;;;18.10;91.10;;;;;;4998911;28;20018;-90
2023/07/03 01:18:49;;;;;;;16.42;4.82;;;18.10;91.20;;;;;;4998691;28;20055;-92
2023/07/03 01:21:21;;;;;;;17.58;5.07;;;18.00;91.10;;;;;;4999348;28;20026;-91
2023/07/03 01:24:04;;;;;;;15.07;4.30;;;18.00;91.30;;;;;;4998708;28;20026;-92
2023/07/03 01:26:31;;;;;;;18.85;4.22;;;18.00;91.30;;;;;;4998833;28;20045;-91
2023/07/03 01:28:59;;;;;;;14.48;4.15;;;17.90;91.30;;;;;;4998543;28;20010;-90
2023/07/03 01:31:28;;;;;;;20.20;4.50;;;18.00;91.40;;;;;;4998644;28;20491;-91
2023/07/03 01:33:55;;;;;;;16.88;4.03;;;18.00;91.40;;;;;;4998647;28;20113;-91
2023/07/03 01:36:23;;;;;;;16.08;4.28;;;17.90;91.40;;;;;;4983149;28;20042;-91
2023/07/03 01:38:50;;;;;;;17.90;4.03;;;17.90;91.20;;;;;;4983265;28;20029;-91
2023/07/03 01:41:18;;;;;;;14.00;4.57;;;17.80;91.30;;;;;;4983270;28;20030;-92
2023/07/03 01:43:45;;;;;;;19.65;4.68;;;17.80;91.50;;;;;;5000496;28;20045;-93
2023/07/03 01:46:13;;;;;;;16.40;4.57;;;17.80;91.70;;;;;;4986475;28;20530;-93
2023/07/03 01:48:39;;;;;;;25.15;5.30;;;17.80;91.70;;;;;;5010092;28;20033;-92
2023/07/03 01:51:09;;;;;;;17.42;4.95;;;17.70;91.50;;;;;;4965866;28;20477;-92
2023/07/03 01:53:53;;;;;;;18.70;5.05;;;17.70;91.60;;;;;;4989754;28;20097;-90
2023/07/03 01:56:24;;;;;;;15.23;4.28;;;17.60;91.70;;;;;;4978258;28;20031;-90
2023/07/03 01:59:09;;;;;;;19.02;4.75;;;17.60;91.80;;;;;;4978305;28;20386;-91
2023/07/03 02:01:55;;;;;;;20.25;4.72;;;17.60;92.00;;;;;;4978254;28;20106;-91
2023/07/03 02:04:44;;;;;;;17.65;5.43;;;17.50;91.90;;;;;;4978851;28;20026;-91
2023/07/03 02:07:11;;;;;;;20.38;5.68;;;17.50;92.40;;;;;;4979277;28;20033;-91
2023/07/03 02:09:39;;;;;;;18.35;4.38;;;17.50;92.20;;;;;;4961913;28;20034;-90
2023/07/03 02:12:06;;;;;;;18.73;5.65;;;17.40;92.30;;;;;;4962142;28;20026;-90
2023/07/03 02:14:34;;;;;;;17.33;4.80;;;17.40;92.40;;;;;;4961959;28;20531;-90
2023/07/03 02:17:01;;;;;;;19.77;6.03;;;17.40;92.40;;;;;;4978244;28;20113;-90
2023/07/03 02:19:28;;;;;;;13.57;3.65;;;17.40;92.50;;;;;;4945933;28;20038;-90
2023/07/03 02:21:56;;;;;;;22.00;4.97;;;17.40;92.50;;;;;;4962160;28;20023;-92
2023/07/03 02:24:22;;;;;;;16.98;4.32;;;17.30;92.50;;;;;;4978146;28;20465;-92
2023/07/03 02:26:48;;;;;;;21.85;4.63;;;17.30;92.70;;;;;;4962341;28;20041;-92
2023/07/03 02:29:15;;;;;;;19.23;4.45;;;17.30;92.80;;;;;;4962363;28;20022;-92
2023/07/03 02:31:41;;;;;;;22.60;4.80;;;17.30;92.90;;;;;;4978428;28;20054;-93
2023/07/03 02:34:06;;;;;;;22.50;4.55;;;17.20;92.90;;;;;;4962290;28;20031;-93
2023/07/03 02:36:36;;;;;;;15.25;4.20;;;17.20;93.00;;;;;;4978148;28;20034;-94
2023/07/03 02:39:04;;;;;;;18.88;5.65;;;17.30;93.20;;;;;;4962149;28;20026;-91
2023/07/03 02:41:30;;;;;;;17.80;5.22;;;17.30;93.30;;;;;;4962163;28;20030;-90
2023/07/03 02:43:56;;;;;;;17.80;4.38;;;17.20;93.50;;;;;;4977296;28;20023;-90
2023/07/03 02:46:22;;;;;;;18.67;4.90;;;17.20;93.60;;;;;;4961650;28;20109;-90
2023/07/03 02:48:47;;;;;;;21.90;5.45;;;17.20;93.60;;;;;;4961985;28;20034;-92
2023/07/03 02:51:13;;;;;;;23.05;5.32;;;17.30;93.80;;;;;;4962049;28;20057;-92
2023/07/03 02:53:39;;;;;;;22.35;5.13;;;17.20;93.90;;;;;;4969975;28;20134;-91
2023/07/03 02:56:05;;;;;;;21.30;4.63;;;17.20;94.00;;;;;;4964927;28;20057;-91
2023/07/03 02:58:30;;;;;;;17.60;4.65;;;17.20;94.10;;;;;;4996901;28;20033;-92
2023/07/03 03:00:56;;;;;;;19.60;5.05;;;17.20;94.30;;;;;;4980685;28;20037;-92
2023/07/03 03:03:23;;;;;;;20.52;5.50;;;17.20;94.30;;;;;;4980910;28;20481;-92
2023/07/03 03:05:49;;;;;;;23.75;4.80;;;17.20;94.30;;;;;;4981041;28;20033;-91
2023/07/03 03:08:14;;;;;;;20.50;4.95;;;17.20;94.40;;;;;;4980900;28;20030;-92
2023/07/03 03:11:01;;;;;;;23.05;5.15;;;17.20;94.60;;;;;;4980844;28;20469;-92
2023/07/03 03:13:26;;;;;;;25.83;5.70;;;17.20;94.80;;;;;;4981378;28;20388;-92
2023/07/03 03:15:52;;;;;;;22.75;5.78;;;17.20;94.90;;;;;;4964931;28;20022;-93
2023/07/03 03:18:18;;;;;;;24.77;5.60;;;17.20;94.90;;;;;;4964617;28;20033;-93
2023/07/03 03:20:44;;;;;;;24.35;6.00;;;17.20;95.30;;;;;;4964751;28;20026;-92
2023/07/03 03:23:10;;;;;;;25.92;5.32;;;17.10;95.30;;;;;;4964884;28;20033;-91
2023/07/03 03:25:35;;;;;;;19.77;5.00;;;17.10;95.40;;;;;;4997553;28;20195;-93
2023/07/03 03:28:01;;;;;;;28.17;6.18;;;17.10;95.50;;;;;;4981214;28;20025;-92
2023/07/03 03:30:27;;;;;;;29.35;6.50;;;17.20;95.70;;;;;;4967864;28;20125;-92
2023/07/03 03:32:52;;;;;;;17.98;5.70;;;17.20;95.80;;;;;;4987504;28;20026;-91
2023/07/03 03:35:18;;;;;;;22.48;5.70;;;17.20;95.90;;;;;;5004575;28;20018;-93
2023/07/03 03:37:44;;;;;;;23.67;5.68;;;17.20;96.00;;;;;;4972286;28;20038;-92
2023/07/03 03:40:09;;;;;;;24.23;6.45;;;17.20;96.10;;;;;;4986365;28;20037;-90
2023/07/03 03:42:36;;;;;;;29.83;6.45;;;17.20;96.20;;;;;;4967895;28;20388;-90
2023/07/03 03:45:02;;;;;;;30.40;6.25;;;17.20;96.40;;;;;;5000152;28;20018;-92
2023/07/03 03:47:28;;;;;;;28.27;5.88;;;17.20;96.50;;;;;;4984148;28;20030;-91
2023/07/03 03:49:54;;;;;;;34.67;6.22;;;17.20;96.90;;;;;;4968180;28;20029;-92
2023/07/03 03:52:19;;;;;;;26.35;6.25;;;17.10;96.80;;;;;;4968123;28;20026;-92
2023/07/03 03:54:46;;;;;;;27.48;5.90;;;17.10;97.10;;;;;;4999958;28;20049;-92
2023/07/03 03:57:13;;;;;;;22.83;5.43;;;17.10;97.20;;;;;;4967783;28;20027;-92
2023/07/03 03:59:39;;;;;;;27.42;6.43;;;17.10;97.30;;;;;;5000144;28;20025;-93
2023/07/03 04:02:05;;;;;;;24.50;6.15;;;17.10;97.50;;;;;;5000430;28;20116;-93
2023/07/03 04:04:30;;;;;;;22.42;6.00;;;17.10;97.60;;;;;;4986002;28;20060;-93
2023/07/03 04:06:56;;;;;;;27.30;6.53;;;17.10;97.70;;;;;;4986930;28;20448;-92
2023/07/03 04:09:22;;;;;;;22.95;6.47;;;17.10;97.80;;;;;;4981263;28;20027;-93
2023/07/03 04:11:47;;;;;;;22.00;5.70;;;17.10;97.90;;;;;;4987211;28;20030;-92
2023/07/03 04:14:15;;;;;;;26.23;6.22;;;17.10;98.10;;;;;;5004083;28;20033;-92
2023/07/03 04:16:41;;;;;;;29.35;7.07;;;17.00;98.40;;;;;;4989803;28;20435;-93
2023/07/03 04:19:07;;;;;;;26.10;6.05;;;17.00;98.40;;;;;;4984426;28;20068;-92
2023/07/03 04:21:32;;;;;;;30.95;6.15;;;17.00;98.60;;;;;;4984107;28;20049;-91
2023/07/03 04:23:58;;;;;;;28.83;6.30;;;17.00;98.70;;;;;;4984318;28;20030;-92
2023/07/03 04:26:24;;;;;;;26.23;6.30;;;17.00;98.90;;;;;;4967724;28;20062;-92
2023/07/03 04:28:50;;;;;;;27.75;6.60;;;17.00;99.20;;;;;;4967334;28;20092;-92
2023/07/03 04:31:15;;;;;;;24.50;5.45;;;16.90;99.00;;;;;;4985324;28;20492;-92
2023/07/03 04:33:43;;;;;;;27.02;6.60;;;16.90;99.10;;;;;;5002132;28;20437;-92
2023/07/03 04:36:11;;;;;;;27.50;6.85;;;16.90;99.30;;;;;;4983820;28;20033;-94
2023/07/03 04:38:39;;;;;;;23.55;5.95;;;16.90;99.50;;;;;;4983401;28;20041;-93
2023/07/03 04:41:04;;;;;;;28.88;6.18;;;16.80;99.50;;;;;;4999238;28;20026;-93
2023/07/03 04:43:31;;;;;;;31.50;6.93;;;16.80;99.60;;;;;;4983133;28;20129;-93
2023/07/03 04:46:02;;;;;;;22.55;5.65;;;16.80;99.80;;;;;;4967123;28;20026;-93
2023/07/03 04:48:28;;;;;;;31.00;6.82;;;16.80;99.90;;;;;;4984095;28;20030;-93
2023/07/03 04:50:54;;;;;;;27.02;6.32;;;16.80;99.90;;;;;;4983187;28;20053;-93
2023/07/03 04:53:20;;;;;;;31.20;6.53;;;16.70;99.90;;;;;;4966554;28;20104;-93
2023/07/03 04:55:47;;;;;;;22.40;6.25;;;16.70;99.90;;;;;;4982718;28;20036;-93
2023/07/03 04:58:13;;;;;;;31.17;6.43;;;16.70;99.90;;;;;;4967112;28;20369;-93
2023/07/03 05:00:40;;;;;;;23.15;6.30;;;16.70;99.90;;;;;;4982896;28;20026;-93
2023/07/03 05:03:07;;;;;;;31.15;6.85;;;16.70;99.90;;;;;;4966966;28;20032;-93
2023/07/03 05:05:33;;;;;;;32.58;7.03;;;16.70;99.90;;;;;;4998754;28;20374;-93
2023/07/03 05:07:59;;;;;;;26.05;5.88;;;16.70;99.90;;;;;;4966550;28;20133;-94
2023/07/03 05:10:25;;;;;;;33.08;6.97;;;16.70;99.90;;;;;;4983040;28;20038;-94
2023/07/03 05:12:51;;;;;;;29.02;7.70;;;16.70;99.90;;;;;;4984170;28;20038;-93
2023/07/03 05:15:19;;;;;;;26.50;6.68;;;16.70;99.90;;;;;;4984246;28;20116;-94
2023/07/03 05:17:54;;;;;;;29.48;6.50;;;16.70;99.90;;;;;;5007408;28;20030;-93
2023/07/03 05:20:55;;;;;;;25.65;6.90;;;16.70;99.90;;;;;;4994889;28;20022;-93
2023/07/03 05:23:20;;;;;;;24.45;6.35;;;16.70;99.90;;;;;;4985297;28;20057;-94
2023/07/03 05:25:47;;;;;;;30.20;6.63;;;16.70;99.90;;;;;;4982744;28;20033;-92
2023/07/03 05:28:13;;;;;;;29.13;6.82;;;16.70;99.90;;;;;;4998471;28;20022;-93
2023/07/03 05:30:39;;;;;;;30.17;6.93;;;16.70;99.90;;;;;;4982174;28;20033;-93
2023/07/03 05:33:05;;;;;;;27.10;6.93;;;16.70;99.90;;;;;;4966078;28;20129;-93
2023/07/03 05:35:30;;;;;;;29.15;7.57;;;16.70;99.90;;;;;;4982056;28;20030;-93
2023/07/03 05:37:59;;;;;;;31.63;6.95;;;16.70;99.90;;;;;;5000262;28;20088;-93
2023/07/03 05:40:25;;;;;;;28.73;7.15;;;16.70;99.90;;;;;;4960081;28;20035;-93
2023/07/03 05:42:51;;;;;;;27.70;6.95;;;16.80;99.90;;;;;;4963981;28;20029;-92
2023/07/03 05:45:17;;;;;;;30.15;6.38;;;16.70;99.90;;;;;;4984626;28;20026;-93
2023/07/03 05:47:43;;;;;;;30.10;7.07;;;16.70;99.90;;;;;;4982194;28;20026;-92
2023/07/03 05:50:08;;;;;;;23.10;6.13;;;16.70;99.90;;;;;;4982305;28;20030;-93
2023/07/03 05:52:36;;;;;;;28.77;6.57;;;16.70;99.90;;;;;;4983303;28;20030;-93
2023/07/03 05:55:01;;;;;;;25.30;6.40;;;16.70;99.90;;;;;;4966484;28;20061;-92
2023/07/03 05:57:27;;;;;;;27.48;6.15;;;16.80;99.90;;;;;;4982328;28;20030;-93
2023/07/03 05:59:54;;;;;;;33.70;8.43;;;16.80;99.90;;;;;;4966651;28;20091;-90
2023/07/03 06:02:20;;;;;;;30.23;7.15;;;16.80;99.90;;;;;;4965901;28;20029;-90
2023/07/03 06:04:45;;;;;;;29.27;6.22;;;16.80;99.90;;;;;;4965993;28;20110;-90
2023/07/03 06:07:11;;;;;;;31.63;6.30;;;16.90;99.90;;;;;;4965293;28;20026;-90
2023/07/03 06:09:37;;;;;;;33.05;6.75;;;16.90;99.90;;;;;;4997336;28;20029;-90
2023/07/03 06:12:03;;;;;;;30.63;6.88;;;16.90;99.90;;;;;;4981442;28;20029;-90
2023/07/03 06:14:30;;;;;;;25.92;6.32;;;16.90;99.90;;;;;;4981434;28;20041;-90
2023/07/03 06:16:57;;;;;;;25.58;7.03;;;17.00;99.90;;;;;;4981791;28;20030;-92
2023/07/03 06:19:25;;;;;;;24.38;6.97;;;17.00;99.90;;;;;;4982068;28;20029;-92
2023/07/03 06:21:50;;;;;;;24.38;6.15;;;17.00;99.90;;;;;;4981861;28;20116;-92
2023/07/03 06:24:17;;;;;;;23.35;5.90;;;17.00;99.90;;;;;;4965727;28;20123;-91
2023/07/03 06:26:44;;;;;;;32.22;7.13;;;17.00;99.90;;;;;;4981670;28;20555;-92
2023/07/03 06:29:11;;;;;;;27.67;6.40;;;17.10;99.90;;;;;;4981679;28;20384;-92
2023/07/03 06:31:37;;;;;;;34.33;7.43;;;17.10;99.90;;;;;;5000935;28;20022;-92
2023/07/03 06:34:03;;;;;;;32.05;8.02;;;17.10;99.90;;;;;;5016805;28;20045;-92
2023/07/03 06:36:31;;;;;;;26.02;7.00;;;17.10;99.90;;;;;;5013989;28;20002;-92
2023/07/03 06:38:59;;;;;;;23.67;5.75;;;17.10;99.90;;;;;;5000911;28;20030;-93
2023/07/03 06:41:29;;;;;;;23.65;6.25;;;17.10;99.90;;;;;;4997851;28;20094;-92
2023/07/03 06:43:56;;;;;;;25.80;6.93;;;17.10;99.90;;;;;;4998098;28;20029;-92
2023/07/03 06:46:22;;;;;;;25.55;6.53;;;17.20;99.90;;;;;;4980113;28;20343;-92
2023/07/03 06:48:47;;;;;;;29.15;7.20;;;17.20;99.90;;;;;;4977395;28;20027;-92
2023/07/03 06:51:14;;;;;;;29.48;6.90;;;17.20;99.90;;;;;;4945936;28;20037;-93
2023/07/03 06:53:40;;;;;;;27.52;6.40;;;17.20;99.90;;;;;;4994070;28;20130;-93
2023/07/03 06:56:07;;;;;;;27.45;6.93;;;17.20;99.90;;;;;;4961696;28;20026;-92
2023/07/03 06:58:33;;;;;;;23.45;6.40;;;17.20;99.90;;;;;;4994175;28;20117;-92
2023/07/03 07:01:10;;;;;;;25.08;6.50;;;17.20;99.90;;;;;;4995210;28;20027;-91
2023/07/03 07:03:36;;;;;;;26.90;6.43;;;17.30;99.90;;;;;;4995576;28;20027;-92
2023/07/03 07:06:12;;;;;;;22.80;5.35;;;17.30;99.90;;;;;;4962018;28;20095;-90
2023/07/03 07:08:38;;;;;;;26.02;7.05;;;17.30;99.90;;;;;;4997644;28;20080;-90
2023/07/03 07:11:09;;;;;;;30.90;6.70;;;17.40;99.90;;;;;;4997535;28;20097;-90
2023/07/03 07:13:37;;;;;;;23.10;6.85;;;17.40;99.90;;;;;;4997550;28;20374;-89
2023/07/03 07:16:03;;;;;;;22.75;6.13;;;17.30;99.90;;;;;;4965865;28;20083;-90
2023/07/03 07:18:29;;;;;;;26.88;5.75;;;17.40;99.90;;;;;;4949444;28;20026;-90
2023/07/03 07:20:54;;;;;;;27.52;5.60;;;17.40;99.90;;;;;;4965406;28;20026;-89
2023/07/03 07:23:20;;;;;;;26.17;6.30;;;17.40;99.90;;;;;;4949328;28;20053;-90
2023/07/03 07:25:53;;;;;;;26.05;8.32;;;17.40;99.90;;;;;;4949120;28;20464;-89
2023/07/03 07:28:19;;;;;;;24.83;6.13;;;17.40;99.90;;;;;;4997435;28;20029;-90
2023/07/03 07:30:44;;;;;;;25.98;5.60;;;17.40;99.90;;;;;;4964907;28;20417;-89
2023/07/03 07:33:10;;;;;;;19.85;5.40;;;17.40;99.90;;;;;;4966063;28;20030;-93
2023/07/03 07:35:36;;;;;;;28.20;6.40;;;17.40;99.90;;;;;;4950127;28;20065;-91
2023/07/03 07:38:02;;;;;;;23.98;6.03;;;17.30;99.90;;;;;;4981818;28;20085;-92
2023/07/03 07:40:28;;;;;;;25.85;6.05;;;17.40;99.90;;;;;;4982082;28;20030;-95
2023/07/03 07:42:54;;;;;;;22.27;5.82;;;17.40;99.90;;;;;;5001368;28;20026;-95
2023/07/03 07:45:19;;;;;;;22.38;5.55;;;17.40;99.90;;;;;;5000779;28;20030;-94
2023/07/03 07:47:45;;;;;;;22.02;5.43;;;17.40;99.90;;;;;;4968496;28;20475;-93
2023/07/03 07:50:11;;;;;;;27.95;6.53;;;17.40;99.90;;;;;;4968384;28;20030;-93
2023/07/03 07:52:37;;;;;;;21.08;5.95;;;17.40;99.90;;;;;;4968554;28;20404;-93
2023/07/03 07:55:03;;;;;;;21.90;5.75;;;17.40;99.90;;;;;;4968580;28;20038;-95
2023/07/03 07:57:29;;;;;;;23.15;6.38;;;17.40;99.90;;;;;;4984367;28;20034;-95
2023/07/03 07:59:55;;;;;;;23.45;5.60;;;17.40;99.90;;;;;;5001028;28;20057;-94
2023/07/03 08:02:21;;;;;;;25.27;5.57;;;17.40;99.90;;;;;;5000104;28;20100;-96
2023/07/03 08:04:47;;;;;;;33.28;6.88;;;17.40;99.90;;;;;;5000316;28;20030;-96
2023/07/03 08:07:13;;;;;;;24.63;6.28;;;17.50;99.90;;;;;;4984642;28;20018;-94
2023/07/03 08:09:38;;;;;;;23.20;5.55;;;17.60;99.90;;;;;;5000498;28;20033;-94
2023/07/03 08:12:05;;;;;;;17.52;4.93;;;17.60;99.90;;;;;;4983804;28;20026;-95
2023/07/03 08:14:31;;;;;;;25.33;5.00;;;17.60;99.90;;;;;;5000358;28;20065;-93
2023/07/03 08:16:57;;;;;;;17.08;5.00;;;17.60;99.90;;;;;;4983856;28;20030;-92
2023/07/03 08:19:23;;;;;;;25.17;6.30;;;17.70;99.90;;;;;;4967681;28;20030;-93
2023/07/03 08:21:48;;;;;;;19.30;4.88;;;17.70;99.90;;;;;;4999679;28;20116;-93
2023/07/03 08:24:14;;;;;;;27.17;6.40;;;17.80;99.90;;;;;;5000000;28;20018;-93
2023/07/03 08:26:41;;;;;;;20.48;5.35;;;17.90;99.90;;;;;;5000090;28;20025;-94
2023/07/03 08:29:08;;;;;;;18.95;4.57;;;17.90;99.90;;;;;;5000858;28;20112;-92
2023/07/03 08:31:33;;;;;;;18.45;4.72;;;18.00;99.90;;;;;;4967904;28;20037;-92
2023/07/03 08:33:59;;;;;;;18.73;4.53;;;18.00;99.90;;;;;;4967356;28;20037;-93
2023/07/03 08:36:25;;;;;;;16.40;4.28;;;18.00;99.90;;;;;;4967512;28;20068;-93
2023/07/03 08:38:50;;;;;;;13.52;4.40;;;18.10;99.90;;;;;;4967179;28;20073;-92
2023/07/03 08:41:17;;;;;;;19.67;5.22;;;18.10;99.90;;;;;;4967558;28;20029;-92
2023/07/03 08:43:48;;;;;;;14.82;4.00;;;18.20;99.90;;;;;;4979842;28;20022;-92
2023/07/03 08:46:35;;;;;;;15.07;3.67;;;18.20;99.90;;;;;;4980288;28;20023;-92
2023/07/03 08:49:04;;;;;;;17.73;4.00;;;18.30;99.90;;;;;;4980178;28;20022;-93
2023/07/03 08:51:32;;;;;;;13.63;3.45;;;18.30;99.90;;;;;;4963863;28;20026;-92
2023/07/03 08:54:20;;;;;;;15.32;4.03;;;18.30;99.90;;;;;;4979772;28;20606;-95
2023/07/03 08:56:47;;;;;;;15.55;3.00;;;18.30;99.90;;;;;;4979952;28;20061;-95
2023/07/03 08:59:13;;;;;;;18.83;4.07;;;18.40;99.90;;;;;;4980481;28;20539;-93
2023/07/03 09:01:59;;;;;;;16.23;3.45;;;18.50;99.70;;;;;;4980020;28;20113;-93
2023/07/03 09:04:47;;;;;;;19.42;3.90;;;18.50;98.70;;;;;;4980618;28;20014;-92
2023/07/03 09:07:21;;;;;;;17.33;4.22;;;18.50;99.20;;;;;;4979630;28;20121;-91
2023/07/03 09:09:59;;;;;;;17.25;3.88;;;18.60;99.90;;;;;;4979734;28;20026;-93
2023/07/03 09:12:36;;;;;;;15.32;3.90;;;18.60;99.80;;;;;;4979825;28;20030;-91
2023/07/03 09:15:20;;;;;;;17.15;3.92;;;18.70;98.70;;;;;;4979880;28;20457;-91
2023/07/03 09:17:47;;;;;;;13.90;3.83;;;18.70;98.30;;;;;;4979805;28;20034;-92
2023/07/03 09:20:15;;;;;;;17.83;4.25;;;18.70;98.50;;;;;;4966680;28;20094;-93
2023/07/03 09:23:10;;;;;;;24.08;5.72;;;18.70;98.50;;;;;;4981779;28;20038;-93
2023/07/03 09:25:46;;;;;;;17.05;3.90;;;18.70;98.70;;;;;;4904143;29;20069;-92
2023/07/03 09:28:12;;;;;;;13.50;3.47;;;18.80;98.70;;;;;;4978857;28;20022;-93
2023/07/03 09:30:38;;;;;;;17.20;3.47;;;18.80;98.40;;;;;;4962284;28;20053;-92
2023/07/03 09:33:06;;;;;;;17.20;3.88;;;18.80;97.70;;;;;;4979071;28;20054;-94
2023/07/03 09:35:42;;;;;;;16.60;3.80;;;18.70;97.80;;;;;;4963018;28;20057;-89
2023/07/03 09:38:21;;;;;;;15.73;3.40;;;18.70;97.80;;;;;;4979330;28;20408;-89
2023/07/03 09:40:53;;;;;;;14.75;4.13;;;18.70;97.60;;;;;;4978637;28;20034;-89
2023/07/03 09:43:20;;;;;;;15.98;4.15;;;18.60;98.00;;;;;;4989332;28;20022;-89
2023/07/03 09:45:46;;;;;;;19.02;5.07;;;18.60;98.20;;;;;;5017006;28;20026;-90
2023/07/03 09:48:34;;;;;;;16.02;4.32;;;18.60;98.40;;;;;;4967474;28;20029;-91
2023/07/03 09:50:59;;;;;;;17.08;4.93;;;18.50;98.50;;;;;;4998995;28;20018;-93
2023/07/03 09:53:26;;;;;;;17.38;4.40;;;18.60;98.50;;;;;;4999201;28;20384;-94
2023/07/03 09:55:58;;;;;;;16.48;3.80;;;18.60;98.00;;;;;;4998822;28;20033;-92
2023/07/03 09:58:28;;;;;;;15.57;3.88;;;18.60;98.10;;;;;;5002161;28;20025;-93
2023/07/03 10:00:56;;;;;;;14.82;3.95;;;18.60;98.30;;;;;;4983360;28;20025;-94
2023/07/03 10:03:25;;;;;;;17.55;3.92;;;18.70;97.90;;;;;;4981958;28;20029;-94
2023/07/03 10:05:51;;;;;;;12.95;3.03;;;18.80;97.70;;;;;;4997823;28;20021;-90
2023/07/03 10:08:21;;;;;;;13.15;3.30;;;18.80;97.30;;;;;;4981926;28;20058;-91
2023/07/03 10:10:49;;;;;;;8.73;3.15;;;18.80;96.00;;;;;;4997811;28;20113;-91
2023/07/03 10:13:29;;;;;;;16.02;3.33;;;18.80;96.10;;;;;;4981901;28;20034;-92
2023/07/03 10:15:56;;;;;;;12.60;2.97;;;18.80;95.80;;;;;;4997490;28;20022;-91
2023/07/03 10:18:36;;;;;;;15.68;2.97;;;18.80;96.00;;;;;;4981747;28;20034;-93
2023/07/03 10:21:06;;;;;;;13.73;3.15;;;18.80;95.50;;;;;;4981462;28;20030;-91
2023/07/03 10:23:37;;;;;;;12.65;2.88;;;18.70;95.30;;;;;;5000592;28;20018;-93
2023/07/03 10:26:13;;;;;;;14.07;3.10;;;18.70;95.10;;;;;;4997559;28;20469;-89
2023/07/03 10:28:45;;;;;;;12.90;3.00;;;18.70;94.20;;;;;;4997485;28;20539;-91
2023/07/03 10:31:32;;;;;;;13.40;2.95;;;18.70;94.80;;;;;;4997354;28;20018;-90
2023/07/03 10:34:10;;;;;;;15.82;3.40;;;18.70;94.50;;;;;;4997459;28;20026;-90
2023/07/03 10:36:39;;;;;;;9.52;2.75;;;18.80;94.90;;;;;;4997451;28;20014;-91
2023/07/03 10:39:20;;;;;;;16.15;3.25;;;18.80;95.20;;;;;;4997511;28;20500;-92
2023/07/03 10:41:56;;;;;;;16.30;3.45;;;19.00;95.30;;;;;;4997824;28;20021;-93
2023/07/03 10:44:26;;;;;;;11.20;3.22;;;19.10;94.00;;;;;;4997512;28;20022;-93
2023/07/03 10:47:14;;;;;;;13.43;3.00;;;19.10;93.10;;;;;;4997538;28;20025;-93
2023/07/03 10:49:40;;;;;;;13.15;3.08;;;19.20;93.00;;;;;;4982276;28;20030;-93
2023/07/03 10:52:28;;;;;;;10.93;3.10;;;19.20;92.90;;;;;;4997699;28;20033;-93
2023/07/03 10:55:15;;;;;;;10.15;3.10;;;19.20;92.20;;;;;;4996963;28;20045;-93
2023/07/03 10:58:01;;;;;;;12.88;3.72;;;19.10;91.00;;;;;;4998142;28;20116;-93
2023/07/03 11:00:49;;;;;;;10.65;3.08;;;19.10;91.40;;;;;;4997758;28;20084;-93
2023/07/03 11:03:24;;;;;;;14.35;2.60;;;19.10;91.80;;;;;;4998141;28;20030;-94
2023/07/03 11:06:03;;;;;;;10.90;3.08;;;19.20;92.20;;;;;;4997996;28;20072;-93
2023/07/03 11:08:29;;;;;;;15.90;3.20;;;19.30;92.20;;;;;;5005607;28;20026;-93
2023/07/03 11:11:03;;;;;;;10.48;3.05;;;19.40;92.10;;;;;;5008690;28;20380;-93
2023/07/03 11:13:49;;;;;;;14.43;3.10;;;19.40;91.80;;;;;;5008391;28;20033;-91
2023/07/03 11:16:16;;;;;;;9.68;2.70;;;19.40;91.20;;;;;;4999292;28;20099;-93
2023/07/03 11:19:02;;;;;;;14.77;3.08;;;19.50;91.90;;;;;;4981141;28;20083;-92
2023/07/03 11:21:41;;;;;;;10.32;3.15;;;19.50;91.40;;;;;;4997238;28;20022;-93
2023/07/03 11:24:36;;;;;;;20.60;3.63;;;19.50;90.90;;;;;;4997352;28;20032;-92
2023/07/03 11:27:42;;;;;;;12.35;3.05;;;19.40;90.80;;;;;;4997126;28;20049;-92
2023/07/03 11:30:09;;;;;;;12.75;2.90;;;19.50;90.70;;;;;;4998272;28;20014;-91
2023/07/03 11:32:35;;;;;;;10.10;2.70;;;19.40;90.60;;;;;;4997837;28;20460;-92
2023/07/03 11:35:04;;;;;;;11.35;2.70;;;19.40;91.10;;;;;;4981392;28;20034;-92
2023/07/03 11:37:35;;;;;;;12.93;2.85;;;19.50;91.10;;;;;;4997375;28;20030;-91
2023/07/03 11:40:23;;;;;;;11.68;3.33;;;19.60;91.60;;;;;;4997109;28;20029;-91
2023/07/03 11:43:08;;;;;;;10.23;2.60;;;19.70;91.50;;;;;;4995420;28;20036;-92
2023/07/03 11:45:36;;;;;;;9.38;2.30;;;19.80;91.60;;;;;;4997072;28;20052;-91
2023/07/03 11:48:02;;;;;;;11.48;2.33;;;20.00;91.60;;;;;;4997100;28;20025;-89
2023/07/03 11:50:34;;;;;;;13.40;2.92;;;20.00;89.90;;;;;;4976525;28;20045;-88
2023/07/03 11:53:01;;;;;;;10.90;2.65;;;20.10;89.50;;;;;;4978250;28;20038;-88
2023/07/03 11:55:39;;;;;;;11.27;3.13;;;20.20;90.30;;;;;;4997630;28;20045;-89
2023/07/03 11:58:05;;;;;;;11.73;3.28;;;20.30;89.30;;;;;;4980100;28;20084;-89
2023/07/03 12:00:32;;;;;;;10.60;2.80;;;20.30;89.30;;;;;;4963371;28;20030;-89
2023/07/03 12:03:00;;;;;;;9.80;2.95;;;20.30;89.00;;;;;;4980510;28;20037;-89
2023/07/03 12:05:44;;;;;;;13.45;3.13;;;20.30;89.60;;;;;;4980088;28;20116;-89
2023/07/03 12:08:22;;;;;;;15.52;3.03;;;20.30;89.30;;;;;;4988591;28;20030;-90
2023/07/03 12:10:52;;;;;;;17.92;2.97;;;20.30;90.20;;;;;;5001649;28;20160;-89
2023/07/03 12:13:46;;;;;;;13.80;2.70;;;20.20;90.00;;;;;;5002487;28;20069;-90
2023/07/03 12:16:32;;;;;;;9.48;2.92;;;20.10;90.30;;;;;;4986266;28;20041;-90
2023/07/03 12:19:04;;;;;;;11.25;3.05;;;20.00;90.70;;;;;;5018988;28;20030;-91
2023/07/03 12:21:49;;;;;;;14.57;3.00;;;20.00;90.90;;;;;;5017092;28;20026;-90
2023/07/03 12:24:33;;;;;;;13.05;3.40;;;20.10;91.40;;;;;;4983259;28;20033;-90
2023/07/03 12:27:03;;;;;;;10.80;3.00;;;20.10;90.90;;;;;;4982957;28;20492;-90
2023/07/03 12:29:32;;;;;;;14.55;3.33;;;20.20;90.80;;;;;;4999496;28;20022;-90
2023/07/03 12:32:05;;;;;;;11.82;2.70;;;20.30;90.60;;;;;;4998761;28;20112;-88
2023/07/03 12:34:32;;;;;;;11.32;2.60;;;20.50;90.70;;;;;;5016065;28;20032;-88
2023/07/03 12:36:59;;;;;;;11.25;2.38;;;20.50;86.60;;;;;;4999603;28;20113;-88
2023/07/03 12:39:26;;;;;;;10.20;2.72;;;20.50;88.90;;;;;;4998673;28;20026;-89
2023/07/03 12:41:52;;;;;;;12.40;2.60;;;20.60;90.00;;;;;;4983124;28;20110;-90
2023/07/03 12:44:22;;;;;;;11.05;2.67;;;20.80;87.40;;;;;;4980755;28;20053;-90
2023/07/03 12:46:48;;;;;;;10.05;2.40;;;20.80;84.70;;;;;;4998807;28;20021;-90
2023/07/03 12:49:17;;;;;;;12.10;2.72;;;20.80;84.70;;;;;;4983625;28;20109;-91
2023/07/03 12:51:51;;;;;;;8.20;2.38;;;20.90;83.70;;;;;;4998820;28;20026;-91